createdAt,value
2022-08-07T00:00:03.541Z,38.05
2022-08-07T00:01:43.240Z,38.06
2022-08-07T00:02:41.129Z,38.05
2022-08-07T00:03:10.121Z,38.06
2022-08-07T00:04:03.394Z,38.06
2022-08-07T00:05:04.269Z,38.07
2022-08-07T00:06:02.610Z,38.07
2022-08-07T00:07:05.175Z,38.07
2022-08-07T00:08:10.919Z,38.07
2022-08-07T00:09:16.428Z,38.06
2022-08-07T00:10:26.598Z,38.07
2022-08-07T00:11:06.355Z,38.08
2022-08-07T00:12:02.595Z,38.08
2022-08-07T00:13:17.421Z,38.09
2022-08-07T00:14:09.900Z,38.10
2022-08-07T00:15:02.803Z,38.11
2022-08-07T00:16:03.617Z,38.11
2022-08-07T00:17:03.639Z,38.11
2022-08-07T00:18:03.547Z,38.12
2022-08-07T00:19:03.595Z,38.12
2022-08-07T00:20:09.046Z,38.13
2022-08-07T00:21:55.475Z,38.14
2022-08-07T00:22:04.366Z,38.15
2022-08-07T00:23:02.751Z,38.17
2022-08-07T00:24:10.206Z,38.18
2022-08-07T00:25:11.138Z,38.17
2022-08-07T00:26:13.047Z,38.19
2022-08-07T00:27:07.450Z,38.21
2022-08-07T00:28:04.198Z,38.22
2022-08-07T00:29:08.606Z,38.22
2022-08-07T00:30:04.135Z,38.22
2022-08-07T00:31:12.819Z,38.21
2022-08-07T00:32:03.840Z,38.22
2022-08-07T00:33:02.828Z,38.23
2022-08-07T00:34:02.215Z,38.23
2022-08-07T00:35:02.192Z,38.23
2022-08-07T00:36:02.239Z,38.24
2022-08-07T00:37:11.746Z,38.22
2022-08-07T00:38:02.998Z,38.23
2022-08-07T00:39:03.507Z,38.23
2022-08-07T00:40:03.287Z,38.22
2022-08-07T00:41:02.102Z,38.22
2022-08-07T00:42:08.919Z,38.20
2022-08-07T00:43:02.416Z,38.20
2022-08-07T00:44:02.976Z,38.18
2022-08-07T00:45:02.185Z,38.17
2022-08-07T00:46:03.553Z,38.16
2022-08-07T00:48:05.156Z,38.15
2022-08-07T00:48:11.121Z,38.16
2022-08-07T00:49:03.686Z,38.15
2022-08-07T00:50:19.249Z,38.15
2022-08-07T00:51:03.998Z,38.16
2022-08-07T00:52:02.324Z,38.13
2022-08-07T00:53:02.243Z,38.14
2022-08-07T00:54:08.447Z,38.14
2022-08-07T00:55:04.687Z,38.13
2022-08-07T00:56:04.459Z,38.11
2022-08-07T00:57:03.510Z,38.14
2022-08-07T00:58:02.667Z,38.14
2022-08-07T00:59:02.064Z,38.13
2022-08-07T01:00:08.521Z,38.13
2022-08-07T01:01:03.107Z,38.13
2022-08-07T01:02:01.913Z,38.14
2022-08-07T01:03:02.910Z,38.15
2022-08-07T01:04:08.514Z,38.15
2022-08-07T01:05:19.337Z,38.15
2022-08-07T01:06:04.425Z,38.17
2022-08-07T01:07:01.996Z,38.18
2022-08-07T01:08:02.888Z,38.20
2022-08-07T01:09:02.783Z,38.20
2022-08-07T01:10:11.243Z,38.21
2022-08-07T01:12:04.769Z,38.24
2022-08-07T01:12:10.212Z,38.23
2022-08-07T01:13:03.539Z,38.26
2022-08-07T01:14:03.039Z,38.26
2022-08-07T01:15:35.896Z,37.92
2022-08-07T01:16:34.184Z,38.28
2022-08-07T01:17:32.874Z,38.29
2022-08-07T01:18:32.512Z,38.30
2022-08-07T01:19:32.462Z,38.30
2022-08-07T01:20:42.985Z,38.33
2022-08-07T01:21:33.297Z,38.32
2022-08-07T01:22:31.919Z,38.35
2022-08-07T01:23:40.089Z,38.37
2022-08-07T01:24:32.694Z,38.39
2022-08-07T01:25:53.515Z,38.41
2022-08-07T01:26:34.249Z,38.41
2022-08-07T01:27:32.322Z,38.41
2022-08-07T01:28:32.330Z,38.43
2022-08-07T01:29:33.830Z,38.44
2022-08-07T01:30:31.588Z,38.45
2022-08-07T01:31:42.589Z,38.47
2022-08-07T01:32:33.100Z,38.48
2022-08-07T01:33:55.076Z,38.47
2022-08-07T01:34:33.707Z,38.48
2022-08-07T01:35:52.945Z,38.49
2022-08-07T01:36:40.697Z,38.48
2022-08-07T01:37:33.810Z,38.48
2022-08-07T01:38:31.894Z,38.49
2022-08-07T01:39:40.803Z,38.50
2022-08-07T01:40:33.238Z,38.49
2022-08-07T01:41:32.607Z,38.50
2022-08-07T01:42:57.396Z,38.52
2022-08-07T01:43:34.513Z,38.52
2022-08-07T01:44:32.872Z,38.53
2022-08-07T01:45:37.233Z,38.53
2022-08-07T01:46:33.772Z,38.53
2022-08-07T01:48:19.277Z,38.55
2022-08-07T01:48:41.116Z,38.53
2022-08-07T01:49:31.885Z,38.52
2022-08-07T01:50:32.449Z,38.54
2022-08-07T01:52:02.471Z,38.54
2022-08-07T01:52:34.510Z,38.54
2022-08-07T01:54:09.086Z,38.55
2022-08-07T01:54:39.369Z,38.57
2022-08-07T01:55:33.615Z,38.57
2022-08-07T01:56:36.351Z,38.56
2022-08-07T01:58:00.997Z,38.55
2022-08-07T01:58:34.175Z,38.56
2022-08-07T01:59:37.707Z,38.56
2022-08-07T02:00:32.660Z,38.57
2022-08-07T02:02:00.013Z,38.58
2022-08-07T02:03:11.918Z,38.58
2022-08-07T02:03:42.904Z,38.58
2022-08-07T02:04:39.919Z,38.59
2022-08-07T02:05:48.169Z,38.60
2022-08-07T02:06:32.626Z,38.62
2022-08-07T02:07:44.960Z,38.62
2022-08-07T02:08:32.780Z,38.64
2022-08-07T02:09:52.806Z,38.64
2022-08-07T02:10:42.169Z,38.64
2022-08-07T02:12:04.708Z,38.63
2022-08-07T02:12:33.970Z,38.62
2022-08-07T02:13:57.917Z,38.62
2022-08-07T02:14:36.404Z,38.62
2022-08-07T02:15:34.130Z,38.61
2022-08-07T02:16:38.362Z,38.61
2022-08-07T02:17:34.120Z,38.61
2022-08-07T02:18:30.971Z,38.60
2022-08-07T02:20:06.737Z,38.61
2022-08-07T02:20:31.952Z,38.59
2022-08-07T02:21:56.090Z,38.60
2022-08-07T02:22:33.420Z,38.61
2022-08-07T02:23:35.779Z,38.62
2022-08-07T02:24:31.925Z,38.63
2022-08-07T02:26:11.438Z,38.64
2022-08-07T02:26:34.495Z,38.65
2022-08-07T02:27:41.163Z,38.65
2022-08-07T02:28:32.146Z,38.66
2022-08-07T02:29:31.263Z,38.69
2022-08-07T02:30:32.167Z,38.70
2022-08-07T02:31:30.794Z,38.69
2022-08-07T02:32:39.541Z,38.72
2022-08-07T02:33:42.027Z,38.70
2022-08-07T02:34:32.476Z,38.71
2022-08-07T02:36:30.865Z,38.70
2022-08-07T02:36:32.906Z,38.72
2022-08-07T02:37:34.276Z,38.73
2022-08-07T02:38:38.500Z,38.75
2022-08-07T02:39:42.586Z,38.76
2022-08-07T02:40:35.318Z,38.76
2022-08-07T02:41:33.478Z,38.75
2022-08-07T02:42:32.377Z,38.78
2022-08-07T02:43:39.462Z,38.76
2022-08-07T02:44:48.361Z,38.78
2022-08-07T02:46:00.918Z,38.78
2022-08-07T02:46:32.594Z,38.77
2022-08-07T02:47:45.194Z,38.77
2022-08-07T02:48:38.498Z,38.75
2022-08-07T02:49:58.312Z,38.74
2022-08-07T02:50:32.606Z,38.75
2022-08-07T02:51:42.536Z,38.73
2022-08-07T02:52:32.930Z,38.73
2022-08-07T02:53:30.473Z,38.72
2022-08-07T02:54:30.735Z,38.71
2022-08-07T02:56:03.472Z,38.72
2022-08-07T02:56:33.161Z,38.73
2022-08-07T02:57:34.094Z,38.73
2022-08-07T02:58:33.257Z,38.73
2022-08-07T02:59:30.382Z,38.73
2022-08-07T03:00:39.118Z,38.73
2022-08-07T03:01:36.304Z,38.71
2022-08-07T03:02:32.887Z,38.73
2022-08-07T03:03:50.192Z,38.73
2022-08-07T03:04:32.285Z,38.72
2022-08-07T03:05:35.718Z,38.72
2022-08-07T03:06:39.247Z,38.71
2022-08-07T03:08:05.239Z,38.73
2022-08-07T03:08:31.381Z,38.72
2022-08-07T03:09:42.448Z,38.71
2022-08-07T03:10:32.098Z,38.72
2022-08-07T03:11:32.638Z,38.71
2022-08-07T03:12:36.613Z,38.72
2022-08-07T03:13:30.610Z,38.71
2022-08-07T03:14:31.695Z,38.73
2022-08-07T03:15:55.774Z,38.73
2022-08-07T03:16:31.252Z,38.72
2022-08-07T03:17:52.785Z,38.71
2022-08-07T03:18:34.785Z,38.71
2022-08-07T03:19:36.784Z,38.71
2022-08-07T03:20:31.985Z,38.71
2022-08-07T03:21:33.153Z,38.69
2022-08-07T03:22:36.629Z,38.68
2022-08-07T03:23:33.619Z,38.66
2022-08-07T03:24:32.283Z,38.66
2022-08-07T03:25:40.483Z,38.66
2022-08-07T03:26:31.685Z,38.66
2022-08-07T03:27:59.574Z,38.67
2022-08-07T03:28:39.527Z,38.66
2022-08-07T03:29:36.629Z,38.66
2022-08-07T03:30:30.221Z,38.68
2022-08-07T03:31:43.489Z,38.67
2022-08-07T03:32:32.769Z,38.68
2022-08-07T03:33:40.049Z,38.65
2022-08-07T03:34:30.953Z,38.65
2022-08-07T03:35:43.610Z,38.65
2022-08-07T03:36:31.579Z,38.65
2022-08-07T03:37:32.712Z,38.65
2022-08-07T03:38:38.713Z,38.63
2022-08-07T03:40:00.045Z,38.63
2022-08-07T03:40:36.154Z,38.62
2022-08-07T03:41:42.165Z,38.61
2022-08-07T03:42:37.663Z,38.60
2022-08-07T03:43:32.439Z,38.58
2022-08-07T03:44:36.141Z,38.56
2022-08-07T03:45:31.510Z,38.54
2022-08-07T03:46:29.855Z,38.52
2022-08-07T03:47:47.773Z,38.51
2022-08-07T03:48:31.281Z,38.48
2022-08-07T03:49:36.392Z,38.47
2022-08-07T03:50:30.031Z,38.45
2022-08-07T03:51:30.738Z,38.46
2022-08-07T03:52:30.820Z,38.45
2022-08-07T03:54:01.952Z,38.42
2022-08-07T03:54:54.568Z,38.42
2022-08-07T03:55:57.467Z,38.40
2022-08-07T03:56:33.472Z,38.40
2022-08-07T03:58:34.343Z,38.42
2022-08-07T03:59:04.868Z,38.42
2022-08-07T03:59:31.559Z,38.40
2022-08-07T04:00:37.285Z,38.41
2022-08-07T04:01:32.258Z,38.42
2022-08-07T04:02:29.646Z,38.39
2022-08-07T04:03:29.831Z,38.37
2022-08-07T04:04:32.656Z,38.37
2022-08-07T04:05:40.272Z,38.35
2022-08-07T04:06:41.525Z,38.34
2022-08-07T04:07:36.277Z,38.32
2022-08-07T04:08:32.139Z,38.32
2022-08-07T04:09:45.160Z,38.31
2022-08-07T04:10:32.136Z,38.29
2022-08-07T04:12:24.944Z,38.27
2022-08-07T04:12:36.825Z,38.25
2022-08-07T04:14:10.900Z,38.23
2022-08-07T04:14:37.643Z,38.19
2022-08-07T04:15:31.361Z,38.19
2022-08-07T04:16:31.337Z,38.16
2022-08-07T04:18:19.664Z,38.13
2022-08-07T04:18:56.633Z,38.12
2022-08-07T04:19:50.969Z,38.10
2022-08-07T04:20:31.620Z,38.08
2022-08-07T04:21:35.730Z,38.05
2022-08-07T04:22:35.779Z,38.03
2022-08-07T04:23:43.410Z,37.98
2022-08-07T04:24:34.292Z,37.96
2022-08-07T04:25:35.893Z,37.92
2022-08-07T04:26:31.091Z,37.90
2022-08-07T04:27:36.249Z,37.88
2022-08-07T04:28:37.960Z,37.84
2022-08-07T04:29:30.475Z,37.81
2022-08-07T04:30:35.848Z,37.80
2022-08-07T04:31:38.863Z,37.75
2022-08-07T04:32:34.568Z,37.73
2022-08-07T04:33:35.540Z,37.71
2022-08-07T04:34:33.237Z,37.69
2022-08-07T04:35:35.261Z,37.65
2022-08-07T04:36:30.755Z,37.63
2022-08-07T04:37:29.208Z,37.60
2022-08-07T04:38:30.851Z,37.56
2022-08-07T04:39:35.590Z,37.54
2022-08-07T04:40:30.008Z,37.50
2022-08-07T04:41:29.099Z,37.46
2022-08-07T04:42:30.685Z,37.45
2022-08-07T04:44:11.301Z,37.43
2022-08-07T04:44:36.289Z,37.41
2022-08-07T04:45:57.234Z,37.40
2022-08-07T04:46:34.669Z,37.38
2022-08-07T04:48:01.600Z,37.35
2022-08-07T04:48:31.774Z,37.33
2022-08-07T04:49:29.276Z,37.31
2022-08-07T04:50:36.992Z,37.30
2022-08-07T04:51:28.974Z,37.26
2022-08-07T04:52:29.918Z,37.25
2022-08-07T04:54:01.866Z,37.22
2022-08-07T04:54:30.425Z,37.20
2022-08-07T04:58:13.248Z,37.18
2022-08-07T04:58:15.845Z,37.19
2022-08-07T04:58:27.513Z,37.15
2022-08-07T04:58:49.587Z,37.13
2022-08-07T05:00:14.506Z,37.11
2022-08-07T05:00:30.811Z,37.09
2022-08-07T05:01:29.925Z,37.07
2022-08-07T05:02:35.071Z,37.04
2022-08-07T05:04:01.102Z,37.02
2022-08-07T05:04:30.860Z,37.00
2022-08-07T05:05:52.764Z,36.97
2022-08-07T05:06:29.750Z,36.96
2022-08-07T05:07:48.248Z,36.93
2022-08-07T05:08:59.915Z,36.91
2022-08-07T05:09:45.430Z,36.90
2022-08-07T05:10:36.530Z,36.87
2022-08-07T05:11:57.923Z,36.85
2022-08-07T05:12:30.518Z,36.82
2022-08-07T05:14:53.516Z,36.79
2022-08-07T05:14:54.299Z,36.79
2022-08-07T05:15:29.959Z,36.77
2022-08-07T05:16:29.592Z,36.75
2022-08-07T05:17:50.793Z,36.73
2022-08-07T05:18:29.797Z,36.72
2022-08-07T05:19:44.726Z,36.72
2022-08-07T05:20:34.144Z,36.69
2022-08-07T05:22:00.805Z,36.70
2022-08-07T05:22:30.820Z,36.69
2022-08-07T05:23:30.061Z,36.68
2022-08-07T05:24:30.401Z,36.67
2022-08-07T05:25:54.424Z,36.67
2022-08-07T05:26:30.262Z,36.66
2022-08-07T05:28:02.910Z,36.65
2022-08-07T05:28:29.558Z,36.64
2022-08-07T05:29:38.831Z,36.62
2022-08-07T05:30:33.031Z,36.62
2022-08-07T05:31:37.693Z,36.60
2022-08-07T05:32:28.481Z,36.60
2022-08-07T05:33:28.450Z,36.59
2022-08-07T05:34:28.401Z,36.58
2022-08-07T05:35:33.572Z,36.58
2022-08-07T05:36:39.165Z,36.56
2022-08-07T05:37:40.897Z,36.55
2022-08-07T05:39:00.908Z,36.53
2022-08-07T05:40:13.674Z,36.53
2022-08-07T05:40:29.326Z,36.52
2022-08-07T05:42:01.689Z,36.51
2022-08-07T05:42:36.845Z,36.50
2022-08-07T05:43:50.071Z,36.49
2022-08-07T05:44:30.483Z,36.48
2022-08-07T05:45:47.633Z,36.47
2022-08-07T05:46:29.768Z,36.47
2022-08-07T05:47:38.483Z,36.45
2022-08-07T05:48:29.173Z,36.44
2022-08-07T05:49:40.552Z,36.44
2022-08-07T05:50:29.785Z,36.43
2022-08-07T05:51:31.561Z,36.42
2022-08-07T05:52:29.918Z,36.41
2022-08-07T05:54:09.541Z,36.39
2022-08-07T05:54:31.026Z,36.39
2022-08-07T05:56:03.366Z,36.36
2022-08-07T05:56:30.137Z,36.35
2022-08-07T05:57:30.128Z,36.35
2022-08-07T05:58:37.064Z,36.32
2022-08-07T05:59:28.311Z,36.31
2022-08-07T06:00:29.590Z,36.31
2022-08-07T06:01:35.831Z,36.31
2022-08-07T06:02:30.677Z,36.30
2022-08-07T06:03:34.256Z,36.27
2022-08-07T06:04:36.371Z,36.27
2022-08-07T06:05:28.420Z,36.26
2022-08-07T06:06:30.026Z,36.25
2022-08-07T06:08:13.438Z,36.23
2022-08-07T06:08:30.631Z,36.24
2022-08-07T06:10:04.457Z,36.22
2022-08-07T06:10:36.212Z,36.20
2022-08-07T06:11:27.969Z,36.18
2022-08-07T06:12:33.154Z,36.16
2022-08-07T06:14:10.328Z,36.15
2022-08-07T06:14:30.429Z,36.15
2022-08-07T06:15:39.479Z,36.15
2022-08-07T06:16:35.676Z,36.13
2022-08-07T06:17:32.166Z,36.12
2022-08-07T06:18:29.321Z,36.13
2022-08-07T06:19:58.338Z,36.11
2022-08-07T06:20:49.350Z,36.11
2022-08-07T06:22:16.361Z,36.11
2022-08-07T06:22:39.099Z,36.09
2022-08-07T06:24:32.562Z,36.08
2022-08-07T06:24:46.080Z,36.09
2022-08-07T06:25:28.863Z,36.06
2022-08-07T06:26:29.550Z,36.06
2022-08-07T06:27:54.467Z,36.05
2022-08-07T06:28:29.649Z,36.05
2022-08-07T06:29:27.978Z,36.03
2022-08-07T06:30:36.133Z,36.01
2022-08-07T06:31:46.774Z,36.01
2022-08-07T06:32:29.296Z,35.98
2022-08-07T06:33:35.157Z,35.98
2022-08-07T06:34:29.800Z,35.97
2022-08-07T06:35:38.970Z,35.96
2022-08-07T06:36:35.596Z,35.95
2022-08-07T06:37:44.123Z,35.94
2022-08-07T06:38:36.489Z,35.93
2022-08-07T06:40:13.135Z,35.92
2022-08-07T06:40:34.041Z,35.91
2022-08-07T06:41:47.639Z,35.89
2022-08-07T06:42:34.933Z,35.89
2022-08-07T06:43:39.619Z,35.89
2022-08-07T06:44:36.806Z,35.87
2022-08-07T06:45:27.534Z,35.88
2022-08-07T06:46:35.089Z,35.86
2022-08-07T06:47:38.674Z,35.86
2022-08-07T06:48:29.155Z,35.86
2022-08-07T06:49:27.362Z,35.85
2022-08-07T06:50:36.093Z,35.82
2022-08-07T06:51:33.398Z,35.82
2022-08-07T06:52:31.884Z,35.82
2022-08-07T06:55:27.172Z,35.82
2022-08-07T06:55:31.952Z,35.82
2022-08-07T06:55:53.583Z,35.79
2022-08-07T06:56:35.603Z,35.80
2022-08-07T06:57:43.446Z,35.79
2022-08-07T06:58:28.955Z,35.78
2022-08-07T07:00:12.602Z,35.78
2022-08-07T07:00:34.605Z,35.77
2022-08-07T07:01:33.150Z,35.76
2022-08-07T07:02:48.924Z,35.75
2022-08-07T07:03:48.942Z,35.74
2022-08-07T07:04:32.996Z,35.75
2022-08-07T07:06:03.376Z,35.73
2022-08-07T07:06:30.465Z,35.71
2022-08-07T07:07:59.670Z,35.70
2022-08-07T07:08:34.927Z,35.69
2022-08-07T07:09:30.934Z,35.70
2022-08-07T07:10:27.387Z,35.69
2022-08-07T07:12:10.059Z,35.68
2022-08-07T07:12:33.408Z,35.69
2022-08-07T07:13:56.396Z,35.69
2022-08-07T07:14:30.378Z,35.68
2022-08-07T07:15:32.528Z,35.67
2022-08-07T07:16:30.264Z,35.65
2022-08-07T07:17:28.863Z,35.64
2022-08-07T07:18:46.855Z,35.63
2022-08-07T07:19:56.893Z,35.63
2022-08-07T07:20:28.544Z,35.64
2022-08-07T07:21:40.398Z,35.63
2022-08-07T07:22:35.837Z,35.61
2022-08-07T07:24:08.734Z,35.60
2022-08-07T07:24:34.236Z,35.60
2022-08-07T07:26:33.964Z,35.58
2022-08-07T07:26:34.426Z,35.60
2022-08-07T07:27:35.792Z,35.59
2022-08-07T07:28:42.261Z,35.58
2022-08-07T07:29:56.636Z,35.58
2022-08-07T07:30:38.091Z,35.58
2022-08-07T07:31:30.467Z,35.59
2022-08-07T07:32:28.474Z,35.57
2022-08-07T07:33:26.820Z,35.58
2022-08-07T07:34:33.572Z,35.57
2022-08-07T07:35:27.859Z,35.57
2022-08-07T07:36:32.894Z,35.55
2022-08-07T07:37:47.140Z,35.55
2022-08-07T07:38:27.884Z,35.55
2022-08-07T07:39:35.857Z,35.54
2022-08-07T07:40:28.631Z,35.53
2022-08-07T07:41:50.463Z,35.51
2022-08-07T07:42:32.513Z,35.51
2022-08-07T07:43:48.162Z,35.50
2022-08-07T07:44:34.322Z,35.50
2022-08-07T07:46:39.754Z,35.49
2022-08-07T07:46:39.960Z,35.49
2022-08-07T07:47:28.727Z,35.49
2022-08-07T07:48:35.741Z,35.49
2022-08-07T07:50:35.770Z,35.48
2022-08-07T07:50:40.145Z,35.48
2022-08-07T07:51:27.119Z,35.48
2022-08-07T07:52:27.876Z,35.46
2022-08-07T07:53:27.945Z,35.46
2022-08-07T07:54:29.186Z,35.45
2022-08-07T07:55:27.736Z,35.45
2022-08-07T07:56:35.619Z,35.46
2022-08-07T07:57:52.191Z,35.46
2022-08-07T07:58:27.962Z,35.46
2022-08-07T07:59:51.628Z,35.46
2022-08-07T08:00:29.643Z,35.45
2022-08-07T08:02:03.270Z,35.45
2022-08-07T08:03:16.678Z,35.11
2022-08-07T08:04:12.529Z,35.47
2022-08-07T08:05:14.155Z,35.47
2022-08-07T08:06:13.131Z,35.46
2022-08-07T08:07:19.996Z,35.45
2022-08-07T08:08:32.311Z,35.45
2022-08-07T08:09:12.494Z,35.45
2022-08-07T08:10:14.935Z,35.44
2022-08-07T08:11:16.317Z,35.43
2022-08-07T08:12:12.786Z,35.43
2022-08-07T08:13:18.952Z,35.44
2022-08-07T08:14:12.457Z,35.44
2022-08-07T08:15:11.147Z,35.43
2022-08-07T08:16:12.683Z,35.42
2022-08-07T08:17:32.462Z,35.43
2022-08-07T08:18:55.859Z,35.14
2022-08-07T08:20:17.859Z,35.55
2022-08-07T08:20:58.005Z,35.57
2022-08-07T08:22:03.353Z,35.56
2022-08-07T08:22:57.363Z,35.55
2022-08-07T08:24:02.091Z,35.54
2022-08-07T08:25:04.480Z,35.53
2022-08-07T08:25:56.826Z,35.52
2022-08-07T08:26:56.127Z,35.53
2022-08-07T08:27:56.226Z,35.53
2022-08-07T08:28:55.834Z,35.53
2022-08-07T08:30:03.815Z,35.53
2022-08-07T08:30:56.141Z,35.52
2022-08-07T08:32:04.764Z,35.52
2022-08-07T08:32:56.741Z,35.53
2022-08-07T08:33:57.843Z,35.51
2022-08-07T08:34:55.913Z,35.53
2022-08-07T08:36:02.159Z,35.52
2022-08-07T08:36:57.591Z,35.51
2022-08-07T08:38:00.448Z,35.50
2022-08-07T08:38:57.398Z,35.47
2022-08-07T08:39:58.722Z,35.47
2022-08-07T08:40:55.608Z,35.44
2022-08-07T08:42:02.032Z,35.42
2022-08-07T08:42:55.772Z,35.42
2022-08-07T08:43:59.302Z,35.40
2022-08-07T08:44:55.902Z,35.39
2022-08-07T08:46:00.633Z,35.38
2022-08-07T08:47:02.793Z,35.36
2022-08-07T08:47:56.636Z,35.37
2022-08-07T08:48:56.495Z,35.37
2022-08-07T08:50:05.178Z,35.35
2022-08-07T08:50:58.000Z,35.33
2022-08-07T08:52:14.128Z,35.32
2022-08-07T08:52:57.012Z,35.32
2022-08-07T08:53:56.600Z,35.31
2022-08-07T08:54:55.471Z,35.31
2022-08-07T08:55:58.320Z,35.29
2022-08-07T08:56:55.399Z,35.27
2022-08-07T08:58:02.752Z,35.26
2022-08-07T08:58:56.725Z,35.24
2022-08-07T08:59:57.180Z,35.19
2022-08-07T09:00:56.449Z,35.20
2022-08-07T09:01:59.581Z,35.17
2022-08-07T09:02:57.956Z,35.18
2022-08-07T09:04:03.041Z,35.18
2022-08-07T09:04:55.779Z,35.17
2022-08-07T09:05:55.550Z,35.17
2022-08-07T09:06:55.548Z,35.17
2022-08-07T09:08:02.581Z,35.17
2022-08-07T09:09:02.195Z,35.16
2022-08-07T09:09:57.893Z,35.15
2022-08-07T09:10:56.406Z,35.14
2022-08-07T09:12:02.791Z,35.13
2022-08-07T09:12:56.403Z,35.10
2022-08-07T09:14:01.881Z,35.09
2022-08-07T09:14:58.808Z,35.06
2022-08-07T09:16:24.390Z,35.05
2022-08-07T09:16:57.184Z,35.03
2022-08-07T09:17:59.376Z,35.01
2022-08-07T09:19:03.578Z,34.97
2022-08-07T09:20:01.824Z,34.97
2022-08-07T09:20:58.404Z,34.95
2022-08-07T09:22:22.374Z,34.93
2022-08-07T09:24:30.451Z,34.89
2022-08-07T09:24:31.056Z,34.91
2022-08-07T09:24:59.688Z,34.87
2022-08-07T09:25:56.079Z,34.85
2022-08-07T09:27:04.576Z,34.80
2022-08-07T09:28:01.306Z,34.76
2022-08-07T09:30:01.293Z,34.71
2022-08-07T09:30:06.433Z,34.70
2022-08-07T09:30:57.616Z,34.67
2022-08-07T09:31:56.235Z,34.65
2022-08-07T09:32:55.090Z,34.62
2022-08-07T09:33:57.910Z,34.55
2022-08-07T09:35:04.821Z,34.47
2022-08-07T09:36:05.103Z,34.39
2022-08-07T09:36:57.765Z,34.32
2022-08-07T09:37:55.013Z,34.25
2022-08-07T09:38:56.794Z,34.16
2022-08-07T09:39:57.976Z,34.07
2022-08-07T09:41:01.489Z,33.96
2022-08-07T09:42:05.891Z,33.81
2022-08-07T09:42:56.936Z,33.68
2022-08-07T09:44:05.569Z,33.60
2022-08-07T09:47:24.544Z,33.55
2022-08-07T09:47:37.257Z,33.54
2022-08-07T09:47:50.935Z,33.53
2022-08-07T09:48:02.898Z,33.57
2022-08-07T09:50:00.887Z,33.73
2022-08-07T09:50:01.045Z,33.64
2022-08-07T09:51:03.842Z,33.79
2022-08-07T09:52:16.211Z,33.82
2022-08-07T09:52:56.645Z,33.88
2022-08-07T09:53:59.260Z,33.95
2022-08-07T09:55:02.593Z,34.03
2022-08-07T09:56:03.534Z,34.11
2022-08-07T09:57:04.235Z,34.19
2022-08-07T09:57:55.464Z,34.26
2022-08-07T09:58:55.911Z,34.29
2022-08-07T10:00:00.564Z,34.27
2022-08-07T10:00:57.495Z,34.23
2022-08-07T10:02:02.477Z,34.19
2022-08-07T10:02:56.340Z,34.16
2022-08-07T10:04:06.048Z,34.17
2022-08-07T10:04:57.287Z,34.17
2022-08-07T10:06:00.855Z,34.19
2022-08-07T10:06:57.160Z,34.19
2022-08-07T10:08:01.506Z,34.21
2022-08-07T10:08:55.225Z,34.23
2022-08-07T10:10:00.863Z,34.23
2022-08-07T10:11:59.527Z,34.25
2022-08-07T10:12:03.308Z,34.25
2022-08-07T10:13:04.257Z,34.24
2022-08-07T10:14:01.878Z,34.24
2022-08-07T10:14:56.934Z,34.20
2022-08-07T10:15:54.620Z,34.11
2022-08-07T10:16:55.314Z,34.01
2022-08-07T10:18:02.803Z,33.93
2022-08-07T10:18:54.419Z,33.91
2022-08-07T10:19:54.374Z,33.92
2022-08-07T10:20:55.542Z,33.95
2022-08-07T10:22:14.399Z,34.00
2022-08-07T10:23:02.031Z,34.03
2022-08-07T10:24:04.877Z,34.07
2022-08-07T10:24:57.322Z,34.14
2022-08-07T10:25:54.506Z,34.20
2022-08-07T10:26:54.468Z,34.28
2022-08-07T10:27:55.984Z,34.35
2022-08-07T10:29:01.551Z,34.39
2022-08-07T10:29:54.501Z,34.45
2022-08-07T10:30:54.244Z,34.49
2022-08-07T10:31:54.197Z,34.56
2022-08-07T10:32:54.510Z,34.60
2022-08-07T10:34:06.525Z,34.66
2022-08-07T10:34:55.970Z,34.72
2022-08-07T10:35:57.188Z,34.76
2022-08-07T10:36:55.944Z,34.78
2022-08-07T10:38:15.533Z,34.83
2022-08-07T10:39:02.504Z,34.87
2022-08-07T10:40:02.578Z,34.90
2022-08-07T10:40:56.514Z,34.91
2022-08-07T10:42:00.456Z,34.86
2022-08-07T10:42:56.742Z,34.89
2022-08-07T10:43:55.078Z,34.90
2022-08-07T10:45:02.101Z,34.91
2022-08-07T10:45:57.996Z,34.91
2022-08-07T10:46:54.993Z,34.90
2022-08-07T10:47:56.674Z,34.91
2022-08-07T10:48:56.477Z,34.91
2022-08-07T10:50:00.474Z,34.89
2022-08-07T10:50:55.203Z,34.82
2022-08-07T10:52:01.710Z,34.73
2022-08-07T10:52:57.856Z,34.63
2022-08-07T10:53:58.505Z,34.60
2022-08-07T10:55:07.905Z,34.58
2022-08-07T10:55:56.296Z,34.55
2022-08-07T10:56:56.308Z,34.51
2022-08-07T10:57:56.351Z,34.46
2022-08-07T10:58:59.530Z,34.39
2022-08-07T11:00:01.945Z,34.33
2022-08-07T11:00:56.363Z,34.28
2022-08-07T11:02:05.529Z,34.23
2022-08-07T11:02:55.374Z,34.19
2022-08-07T11:04:05.410Z,34.15
2022-08-07T11:05:07.317Z,34.08
2022-08-07T11:05:55.466Z,34.03
2022-08-07T11:06:54.743Z,33.99
2022-08-07T11:07:58.604Z,33.92
2022-08-07T11:08:55.540Z,33.83
2022-08-07T11:10:09.922Z,33.69
2022-08-07T11:10:59.845Z,33.59
2022-08-07T11:11:53.967Z,33.53
2022-08-07T11:13:02.332Z,33.51
2022-08-07T11:14:43.717Z,33.42
2022-08-07T11:14:57.420Z,33.34
2022-08-07T11:16:01.440Z,33.28
2022-08-07T11:16:59.383Z,33.25
2022-08-07T11:17:55.080Z,33.22
2022-08-07T11:19:00.031Z,33.14
2022-08-07T11:19:54.509Z,33.05
2022-08-07T11:20:59.899Z,32.96
2022-08-07T11:21:54.599Z,32.88
2022-08-07T11:22:54.525Z,32.74
2022-08-07T11:23:53.783Z,32.64
2022-08-07T11:24:54.304Z,32.52
2022-08-07T11:26:06.330Z,32.39
2022-08-07T11:26:55.923Z,32.27
2022-08-07T11:28:02.628Z,32.17
2022-08-07T11:28:56.017Z,32.07
2022-08-07T11:30:10.425Z,32.02
2022-08-07T11:30:55.925Z,31.97
2022-08-07T11:32:00.078Z,31.89
2022-08-07T11:32:54.592Z,31.82
2022-08-07T11:33:59.634Z,31.75
2022-08-07T11:34:54.945Z,31.70
2022-08-07T11:35:59.713Z,31.67
2022-08-07T11:36:56.441Z,31.69
2022-08-07T11:38:10.419Z,31.65
2022-08-07T11:38:54.795Z,31.63
2022-08-07T11:39:59.220Z,31.61
2022-08-07T11:40:55.254Z,31.57
2022-08-07T11:42:00.251Z,31.56
2022-08-07T11:42:55.027Z,31.51
2022-08-07T11:44:11.001Z,31.45
2022-08-07T11:44:57.842Z,31.37
2022-08-07T11:45:54.290Z,31.32
2022-08-07T11:46:53.664Z,31.27
2022-08-07T11:47:56.417Z,31.27
2022-08-07T11:49:50.855Z,31.30
2022-08-07T11:50:30.569Z,31.39
2022-08-07T11:50:57.617Z,31.48
2022-08-07T11:51:54.292Z,31.59
2022-08-07T11:52:53.607Z,31.66
2022-08-07T11:54:01.399Z,31.68
2022-08-07T11:54:55.615Z,31.69
2022-08-07T11:56:15.682Z,31.65
2022-08-07T11:56:56.242Z,31.61
2022-08-07T11:58:00.717Z,31.59
2022-08-07T11:58:55.941Z,31.56
2022-08-07T12:00:11.593Z,31.52
2022-08-07T12:01:05.043Z,31.49
2022-08-07T12:02:00.646Z,31.42
2022-08-07T12:02:55.981Z,31.34
2022-08-07T12:03:54.133Z,31.30
2022-08-07T12:04:54.026Z,31.26
2022-08-07T12:05:53.961Z,31.27
2022-08-07T12:07:07.938Z,31.34
2022-08-07T12:07:59.595Z,31.44
2022-08-07T12:08:55.450Z,31.52
2022-08-07T12:09:55.101Z,31.54
2022-08-07T12:11:08.040Z,31.58
2022-08-07T12:12:10.725Z,31.59
2022-08-07T12:12:55.788Z,31.60
2022-08-07T12:13:53.310Z,31.61
2022-08-07T12:14:56.398Z,31.67
2022-08-07T12:16:06.068Z,31.74
2022-08-07T12:17:24.699Z,31.40
2022-08-07T12:18:29.842Z,31.97
2022-08-07T12:19:25.731Z,32.02
2022-08-07T12:20:30.067Z,32.11
2022-08-07T12:21:55.484Z,32.24
2022-08-07T12:22:38.592Z,32.39
2022-08-07T12:24:06.176Z,32.49
2022-08-07T12:24:52.498Z,32.53
2022-08-07T12:26:03.250Z,32.57
2022-08-07T12:26:29.996Z,32.63
2022-08-07T12:27:28.174Z,32.68
2022-08-07T12:28:31.934Z,32.69
2022-08-07T12:29:37.729Z,32.68
2022-08-07T12:30:27.136Z,32.66
2022-08-07T12:31:24.947Z,32.67
2022-08-07T12:32:25.576Z,32.64
2022-08-07T12:33:30.720Z,32.64
2022-08-07T12:34:33.166Z,32.60
2022-08-07T12:35:25.856Z,32.58
2022-08-07T12:36:33.298Z,32.62
2022-08-07T12:37:27.813Z,32.68
2022-08-07T12:38:38.605Z,32.79
2022-08-07T12:39:42.969Z,32.89
2022-08-07T12:40:48.942Z,32.97
2022-08-07T12:41:42.652Z,33.02
2022-08-07T12:42:27.681Z,33.08
2022-08-07T12:44:03.151Z,33.13
2022-08-07T12:44:33.098Z,33.14
2022-08-07T12:45:30.947Z,33.09
2022-08-07T12:46:26.434Z,33.02
2022-08-07T12:47:26.936Z,32.97
2022-08-07T12:48:27.967Z,32.99
2022-08-07T12:49:44.709Z,33.03
2022-08-07T12:50:39.192Z,33.10
2022-08-07T12:51:51.428Z,33.19
2022-08-07T12:52:25.310Z,33.34
2022-08-07T12:53:25.107Z,33.45
2022-08-07T12:54:38.490Z,33.57